Weather at Portland Hillsboro Airport

Public forecast

Using degrees Fahrenheit for public forecast. Weather courtesy of forecast.io.

Current aviation weather report (METAR) for Portland Hillsboro Airport

Retrieved 2020/09/26 15:53 UTC (59 minutes ago):

KHIO 261553Z 34003KT 1/4SM R13R/1200V1400FT FG VV002 12/12 A3015 RMK AO2 SLP208 T01220122

Aviation forecast (TAF) for Portland Hillsboro Airport

Retrieved 2020/09/26 12:48 UTC (4 hours ago):

TAF KHIO 261146Z 2612/2712 VRB02KT 1/4SM FG VV002 FM261900 28005KT 1SM BR OVC015 FM262100 26009KT P6SM -SHRA SCT029 BKN060 FM270000 30008KT P6SM FEW035 FEW090